sensor_id;sensor_type;location;lat;lon;timestamp;temperature;humidity
67748;HTU21D;54543;50.712;6.070;2024-03-22T00:01:41;10.78;118.99
67748;HTU21D;54543;50.712;6.070;2024-03-22T00:04:06;10.75;118.99
67748;HTU21D;54543;50.712;6.070;2024-03-22T00:06:32;10.74;118.99
67748;HTU21D;54543;50.712;6.070;2024-03-22T00:08:58;10.74;118.99
67748;HTU21D;54543;50.712;6.070;2024-03-22T00:11:25;10.75;118.99
67748;HTU21D;54543;50.712;6.070;2024-03-22T00:13:52;10.78;118.99
67748;HTU21D;54543;50.712;6.070;2024-03-22T00:16:19;10.78;118.99
67748;HTU21D;54543;50.712;6.070;2024-03-22T00:18:44;10.78;118.99
67748;HTU21D;54543;50.712;6.070;2024-03-22T00:21:10;10.78;118.99
67748;HTU21D;54543;50.712;6.070;2024-03-22T00:23:35;10.80;118.99
67748;HTU21D;54543;50.712;6.070;2024-03-22T00:26:01;10.80;118.99
67748;HTU21D;54543;50.712;6.070;2024-03-22T00:28:27;10.80;118.99
67748;HTU21D;54543;50.712;6.070;2024-03-22T00:30:52;10.80;118.99
67748;HTU21D;54543;50.712;6.070;2024-03-22T00:33:18;10.80;118.99
67748;HTU21D;54543;50.712;6.070;2024-03-22T00:35:43;10.81;118.99
67748;HTU21D;54543;50.712;6.070;2024-03-22T00:38:09;10.80;118.99
67748;HTU21D;54543;50.712;6.070;2024-03-22T00:40:34;10.81;118.99
67748;HTU21D;54543;50.712;6.070;2024-03-22T00:43:00;10.83;118.99
67748;HTU21D;54543;50.712;6.070;2024-03-22T00:45:26;10.84;118.99
67748;HTU21D;54543;50.712;6.070;2024-03-22T00:47:51;10.82;118.99
67748;HTU21D;54543;50.712;6.070;2024-03-22T00:50:17;10.82;118.99
67748;HTU21D;54543;50.712;6.070;2024-03-22T00:52:43;10.82;118.99
67748;HTU21D;54543;50.712;6.070;2024-03-22T00:55:08;10.79;118.99
67748;HTU21D;54543;50.712;6.070;2024-03-22T00:57:34;10.74;118.99
67748;HTU21D;54543;50.712;6.070;2024-03-22T00:59:59;10.75;118.99
67748;HTU21D;54543;50.712;6.070;2024-03-22T01:02:25;10.75;118.99
67748;HTU21D;54543;50.712;6.070;2024-03-22T01:04:51;10.80;118.99
67748;HTU21D;54543;50.712;6.070;2024-03-22T01:07:16;10.81;118.99
67748;HTU21D;54543;50.712;6.070;2024-03-22T01:09:42;10.79;118.99
67748;HTU21D;54543;50.712;6.070;2024-03-22T01:12:10;10.84;118.99
67748;HTU21D;54543;50.712;6.070;2024-03-22T01:14:36;10.87;118.99
67748;HTU21D;54543;50.712;6.070;2024-03-22T01:17:02;10.97;118.99
67748;HTU21D;54543;50.712;6.070;2024-03-22T01:19:27;11.10;118.99
67748;HTU21D;54543;50.712;6.070;2024-03-22T01:21:53;11.15;118.99
67748;HTU21D;54543;50.712;6.070;2024-03-22T01:24:19;11.19;118.99
67748;HTU21D;54543;50.712;6.070;2024-03-22T01:26:44;11.19;118.99
67748;HTU21D;54543;50.712;6.070;2024-03-22T01:29:10;11.24;118.99
67748;HTU21D;54543;50.712;6.070;2024-03-22T01:31:35;11.27;118.99
67748;HTU21D;54543;50.712;6.070;2024-03-22T01:34:01;11.30;118.99
67748;HTU21D;54543;50.712;6.070;2024-03-22T01:36:27;11.31;118.99
67748;HTU21D;54543;50.712;6.070;2024-03-22T01:38:52;11.32;118.99
67748;HTU21D;54543;50.712;6.070;2024-03-22T01:41:18;11.38;118.99
67748;HTU21D;54543;50.712;6.070;2024-03-22T01:43:44;11.37;118.99
67748;HTU21D;54543;50.712;6.070;2024-03-22T01:46:09;11.36;118.99
67748;HTU21D;54543;50.712;6.070;2024-03-22T01:48:35;11.36;118.99
67748;HTU21D;54543;50.712;6.070;2024-03-22T01:51:02;11.38;118.99
67748;HTU21D;54543;50.712;6.070;2024-03-22T01:53:29;11.38;118.99
67748;HTU21D;54543;50.712;6.070;2024-03-22T01:55:54;11.34;118.99
67748;HTU21D;54543;50.712;6.070;2024-03-22T01:58:21;11.37;118.99
67748;HTU21D;54543;50.712;6.070;2024-03-22T02:00:47;11.33;118.99
67748;HTU21D;54543;50.712;6.070;2024-03-22T02:03:13;11.34;118.99
67748;HTU21D;54543;50.712;6.070;2024-03-22T02:05:38;11.34;118.99
67748;HTU21D;54543;50.712;6.070;2024-03-22T02:08:04;11.34;118.99
67748;HTU21D;54543;50.712;6.070;2024-03-22T02:10:30;11.30;118.99
67748;HTU21D;54543;50.712;6.070;2024-03-22T02:12:56;11.30;118.99
67748;HTU21D;54543;50.712;6.070;2024-03-22T02:15:21;11.30;118.99
67748;HTU21D;54543;50.712;6.070;2024-03-22T02:17:47;11.30;118.99
67748;HTU21D;54543;50.712;6.070;2024-03-22T02:20:13;11.32;118.99
67748;HTU21D;54543;50.712;6.070;2024-03-22T02:22:39;11.31;118.99
67748;HTU21D;54543;50.712;6.070;2024-03-22T02:25:05;11.30;118.99
67748;HTU21D;54543;50.712;6.070;2024-03-22T02:27:32;11.33;118.99
67748;HTU21D;54543;50.712;6.070;2024-03-22T02:29:58;11.36;118.99
67748;HTU21D;54543;50.712;6.070;2024-03-22T02:32:23;11.41;118.99
67748;HTU21D;54543;50.712;6.070;2024-03-22T02:34:49;11.41;118.99
67748;HTU21D;54543;50.712;6.070;2024-03-22T02:37:14;11.47;118.99
67748;HTU21D;54543;50.712;6.070;2024-03-22T02:39:40;11.48;118.99
67748;HTU21D;54543;50.712;6.070;2024-03-22T02:42:06;11.53;118.99
67748;HTU21D;54543;50.712;6.070;2024-03-22T02:44:31;11.52;118.99
67748;HTU21D;54543;50.712;6.070;2024-03-22T02:46:57;11.49;118.99
67748;HTU21D;54543;50.712;6.070;2024-03-22T02:49:22;11.51;118.99
67748;HTU21D;54543;50.712;6.070;2024-03-22T02:51:48;11.51;118.99
67748;HTU21D;54543;50.712;6.070;2024-03-22T02:54:14;11.48;118.99
67748;HTU21D;54543;50.712;6.070;2024-03-22T02:56:39;11.53;118.99
67748;HTU21D;54543;50.712;6.070;2024-03-22T02:59:05;11.57;118.99
67748;HTU21D;54543;50.712;6.070;2024-03-22T03:01:30;11.59;118.99
67748;HTU21D;54543;50.712;6.070;2024-03-22T03:03:56;11.66;118.99
67748;HTU21D;54543;50.712;6.070;2024-03-22T03:06:22;11.71;118.99
67748;HTU21D;54543;50.712;6.070;2024-03-22T03:08:47;11.71;118.99
67748;HTU21D;54543;50.712;6.070;2024-03-22T03:11:14;11.69;118.99
67748;HTU21D;54543;50.712;6.070;2024-03-22T03:13:40;11.67;118.99
67748;HTU21D;54543;50.712;6.070;2024-03-22T03:16:06;11.66;118.99
67748;HTU21D;54543;50.712;6.070;2024-03-22T03:18:32;11.63;118.99
67748;HTU21D;54543;50.712;6.070;2024-03-22T03:20:57;11.60;118.99
67748;HTU21D;54543;50.712;6.070;2024-03-22T03:23:23;11.58;118.99
67748;HTU21D;54543;50.712;6.070;2024-03-22T03:25:49;11.60;118.99
67748;HTU21D;54543;50.712;6.070;2024-03-22T03:28:14;11.66;118.99
67748;HTU21D;54543;50.712;6.070;2024-03-22T03:30:40;11.69;118.99
67748;HTU21D;54543;50.712;6.070;2024-03-22T03:33:05;11.68;118.99
67748;HTU21D;54543;50.712;6.070;2024-03-22T03:35:31;11.71;118.99
67748;HTU21D;54543;50.712;6.070;2024-03-22T03:37:56;11.69;118.99
67748;HTU21D;54543;50.712;6.070;2024-03-22T03:40:22;11.68;118.99
67748;HTU21D;54543;50.712;6.070;2024-03-22T03:42:53;11.68;118.99
67748;HTU21D;54543;50.712;6.070;2024-03-22T03:45:18;11.71;118.99
67748;HTU21D;54543;50.712;6.070;2024-03-22T03:47:44;11.69;118.99
67748;HTU21D;54543;50.712;6.070;2024-03-22T03:50:10;11.71;118.99
67748;HTU21D;54543;50.712;6.070;2024-03-22T03:52:35;11.70;118.99
67748;HTU21D;54543;50.712;6.070;2024-03-22T03:55:01;11.72;118.99
67748;HTU21D;54543;50.712;6.070;2024-03-22T03:57:26;11.76;118.99
67748;HTU21D;54543;50.712;6.070;2024-03-22T03:59:52;11.79;118.99
67748;HTU21D;54543;50.712;6.070;2024-03-22T04:02:18;11.83;118.99
67748;HTU21D;54543;50.712;6.070;2024-03-22T04:04:43;11.81;118.99
67748;HTU21D;54543;50.712;6.070;2024-03-22T04:07:09;11.78;118.99
67748;HTU21D;54543;50.712;6.070;2024-03-22T04:09:34;11.75;118.99
67748;HTU21D;54543;50.712;6.070;2024-03-22T04:12:00;11.81;118.99
67748;HTU21D;54543;50.712;6.070;2024-03-22T04:14:26;11.85;118.99
67748;HTU21D;54543;50.712;6.070;2024-03-22T04:16:52;11.83;118.99
67748;HTU21D;54543;50.712;6.070;2024-03-22T04:19:20;11.81;118.99
67748;HTU21D;54543;50.712;6.070;2024-03-22T04:21:46;11.78;118.99
67748;HTU21D;54543;50.712;6.070;2024-03-22T04:24:12;11.82;118.99
67748;HTU21D;54543;50.712;6.070;2024-03-22T04:26:38;11.85;118.99
67748;HTU21D;54543;50.712;6.070;2024-03-22T04:29:03;11.86;118.99
67748;HTU21D;54543;50.712;6.070;2024-03-22T04:31:29;11.86;118.99
67748;HTU21D;54543;50.712;6.070;2024-03-22T04:33:56;11.82;118.99
67748;HTU21D;54543;50.712;6.070;2024-03-22T04:36:21;11.84;118.99
67748;HTU21D;54543;50.712;6.070;2024-03-22T04:38:48;11.82;118.99
67748;HTU21D;54543;50.712;6.070;2024-03-22T04:41:13;11.87;118.99
67748;HTU21D;54543;50.712;6.070;2024-03-22T04:43:39;11.92;118.99
67748;HTU21D;54543;50.712;6.070;2024-03-22T04:46:05;11.99;118.99
67748;HTU21D;54543;50.712;6.070;2024-03-22T04:48:30;11.97;118.99
67748;HTU21D;54543;50.712;6.070;2024-03-22T04:50:56;11.97;118.99
67748;HTU21D;54543;50.712;6.070;2024-03-22T04:53:22;11.97;118.99
67748;HTU21D;54543;50.712;6.070;2024-03-22T04:55:48;11.92;118.99
67748;HTU21D;54543;50.712;6.070;2024-03-22T04:58:14;11.88;118.99
67748;HTU21D;54543;50.712;6.070;2024-03-22T05:00:41;11.86;118.99
67748;HTU21D;54543;50.712;6.070;2024-03-22T05:03:07;11.83;118.99
67748;HTU21D;54543;50.712;6.070;2024-03-22T05:05:33;11.82;118.99
67748;HTU21D;54543;50.712;6.070;2024-03-22T05:07:59;11.88;118.99
67748;HTU21D;54543;50.712;6.070;2024-03-22T05:10:24;11.88;118.99
67748;HTU21D;54543;50.712;6.070;2024-03-22T05:12:50;11.90;118.99
67748;HTU21D;54543;50.712;6.070;2024-03-22T05:15:16;11.87;118.99
67748;HTU21D;54543;50.712;6.070;2024-03-22T05:17:41;11.86;118.99
67748;HTU21D;54543;50.712;6.070;2024-03-22T05:20:08;11.90;118.99
67748;HTU21D;54543;50.712;6.070;2024-03-22T05:22:39;11.92;118.99
67748;HTU21D;54543;50.712;6.070;2024-03-22T05:25:06;11.89;118.99
67748;HTU21D;54543;50.712;6.070;2024-03-22T05:27:32;11.86;118.99
67748;HTU21D;54543;50.712;6.070;2024-03-22T05:29:58;11.88;118.99
67748;HTU21D;54543;50.712;6.070;2024-03-22T05:32:25;11.90;118.99
67748;HTU21D;54543;50.712;6.070;2024-03-22T05:34:52;11.93;118.99
67748;HTU21D;54543;50.712;6.070;2024-03-22T05:37:17;12.00;118.99
67748;HTU21D;54543;50.712;6.070;2024-03-22T05:39:43;12.01;118.99
67748;HTU21D;54543;50.712;6.070;2024-03-22T05:42:09;12.01;118.99
67748;HTU21D;54543;50.712;6.070;2024-03-22T05:44:34;12.04;118.99
67748;HTU21D;54543;50.712;6.070;2024-03-22T05:47:00;12.10;118.99
67748;HTU21D;54543;50.712;6.070;2024-03-22T05:49:26;12.18;118.99
67748;HTU21D;54543;50.712;6.070;2024-03-22T05:51:54;12.18;118.99
67748;HTU21D;54543;50.712;6.070;2024-03-22T05:54:19;12.17;118.99
67748;HTU21D;54543;50.712;6.070;2024-03-22T05:56:45;12.12;118.99
67748;HTU21D;54543;50.712;6.070;2024-03-22T05:59:11;12.05;118.99
67748;HTU21D;54543;50.712;6.070;2024-03-22T06:01:37;11.99;118.99
67748;HTU21D;54543;50.712;6.070;2024-03-22T06:04:05;11.99;118.99
67748;HTU21D;54543;50.712;6.070;2024-03-22T06:06:34;11.93;118.99
67748;HTU21D;54543;50.712;6.070;2024-03-22T06:09:00;11.97;118.99
67748;HTU21D;54543;50.712;6.070;2024-03-22T06:11:32;12.00;118.99
67748;HTU21D;54543;50.712;6.070;2024-03-22T06:13:57;12.05;118.99
67748;HTU21D;54543;50.712;6.070;2024-03-22T06:16:24;12.01;118.99
67748;HTU21D;54543;50.712;6.070;2024-03-22T06:18:50;12.02;118.99
67748;HTU21D;54543;50.712;6.070;2024-03-22T06:21:15;12.01;118.99
67748;HTU21D;54543;50.712;6.070;2024-03-22T06:23:50;12.04;118.99
67748;HTU21D;54543;50.712;6.070;2024-03-22T06:26:16;12.05;118.99
67748;HTU21D;54543;50.712;6.070;2024-03-22T06:28:41;12.02;118.99
67748;HTU21D;54543;50.712;6.070;2024-03-22T06:31:07;12.03;118.99
67748;HTU21D;54543;50.712;6.070;2024-03-22T06:33:33;12.07;118.99
67748;HTU21D;54543;50.712;6.070;2024-03-22T06:35:59;12.12;118.99
67748;HTU21D;54543;50.712;6.070;2024-03-22T06:38:25;12.13;118.99
67748;HTU21D;54543;50.712;6.070;2024-03-22T06:40:52;12.14;118.99
67748;HTU21D;54543;50.712;6.070;2024-03-22T06:43:18;12.16;118.99
67748;HTU21D;54543;50.712;6.070;2024-03-22T06:45:44;12.20;118.99
67748;HTU21D;54543;50.712;6.070;2024-03-22T06:48:10;12.23;118.99
67748;HTU21D;54543;50.712;6.070;2024-03-22T06:50:35;12.26;118.99
67748;HTU21D;54543;50.712;6.070;2024-03-22T06:53:01;12.26;118.99
67748;HTU21D;54543;50.712;6.070;2024-03-22T06:55:28;12.27;118.99
67748;HTU21D;54543;50.712;6.070;2024-03-22T06:57:54;12.27;118.99
67748;HTU21D;54543;50.712;6.070;2024-03-22T07:00:21;12.23;118.99
67748;HTU21D;54543;50.712;6.070;2024-03-22T07:02:46;12.26;118.99
67748;HTU21D;54543;50.712;6.070;2024-03-22T07:05:12;12.23;118.99
67748;HTU21D;54543;50.712;6.070;2024-03-22T07:07:39;12.30;118.99
67748;HTU21D;54543;50.712;6.070;2024-03-22T07:10:05;12.35;118.99
67748;HTU21D;54543;50.712;6.070;2024-03-22T07:12:35;12.41;118.99
67748;HTU21D;54543;50.712;6.070;2024-03-22T07:15:02;12.46;118.99
67748;HTU21D;54543;50.712;6.070;2024-03-22T07:17:28;12.52;118.99
67748;HTU21D;54543;50.712;6.070;2024-03-22T07:19:54;12.55;118.99
67748;HTU21D;54543;50.712;6.070;2024-03-22T07:22:20;12.57;118.99
67748;HTU21D;54543;50.712;6.070;2024-03-22T07:24:46;12.56;118.99
67748;HTU21D;54543;50.712;6.070;2024-03-22T07:27:13;12.57;118.99
67748;HTU21D;54543;50.712;6.070;2024-03-22T07:29:41;12.64;118.99
67748;HTU21D;54543;50.712;6.070;2024-03-22T07:32:08;12.71;118.99
67748;HTU21D;54543;50.712;6.070;2024-03-22T07:34:35;12.71;118.99
67748;HTU21D;54543;50.712;6.070;2024-03-22T07:37:03;12.75;118.99
67748;HTU21D;54543;50.712;6.070;2024-03-22T07:39:31;12.74;118.99
67748;HTU21D;54543;50.712;6.070;2024-03-22T07:41:57;12.78;118.99
67748;HTU21D;54543;50.712;6.070;2024-03-22T07:44:23;12.82;118.99
67748;HTU21D;54543;50.712;6.070;2024-03-22T07:46:50;12.81;118.99
67748;HTU21D;54543;50.712;6.070;2024-03-22T07:49:15;12.85;118.99
67748;HTU21D;54543;50.712;6.070;2024-03-22T07:51:41;12.86;118.99
67748;HTU21D;54543;50.712;6.070;2024-03-22T07:54:07;12.93;118.99
67748;HTU21D;54543;50.712;6.070;2024-03-22T07:56:35;12.96;118.99
67748;HTU21D;54543;50.712;6.070;2024-03-22T07:59:03;12.96;118.99
67748;HTU21D;54543;50.712;6.070;2024-03-22T08:01:29;12.97;118.99
67748;HTU21D;54543;50.712;6.070;2024-03-22T08:03:55;13.01;118.99
67748;HTU21D;54543;50.712;6.070;2024-03-22T08:06:20;13.03;118.99
67748;HTU21D;54543;50.712;6.070;2024-03-22T08:08:46;13.09;118.99
67748;HTU21D;54543;50.712;6.070;2024-03-22T08:11:12;13.12;118.99
67748;HTU21D;54543;50.712;6.070;2024-03-22T08:13:38;13.15;118.99
67748;HTU21D;54543;50.712;6.070;2024-03-22T08:16:09;13.20;118.99
67748;HTU21D;54543;50.712;6.070;2024-03-22T08:18:35;13.17;118.99
67748;HTU21D;54543;50.712;6.070;2024-03-22T08:21:01;13.17;118.99
67748;HTU21D;54543;50.712;6.070;2024-03-22T08:23:28;13.19;118.99
67748;HTU21D;54543;50.712;6.070;2024-03-22T08:25:57;13.22;118.99
67748;HTU21D;54543;50.712;6.070;2024-03-22T08:28:24;13.26;118.99
67748;HTU21D;54543;50.712;6.070;2024-03-22T08:30:50;13.32;118.99
67748;HTU21D;54543;50.712;6.070;2024-03-22T08:33:21;13.40;118.99
67748;HTU21D;54543;50.712;6.070;2024-03-22T08:35:47;13.44;118.99
67748;HTU21D;54543;50.712;6.070;2024-03-22T08:38:14;13.48;118.99
67748;HTU21D;54543;50.712;6.070;2024-03-22T08:40:40;13.47;118.99
67748;HTU21D;54543;50.712;6.070;2024-03-22T08:43:06;13.46;118.99
67748;HTU21D;54543;50.712;6.070;2024-03-22T08:45:35;13.52;118.99
67748;HTU21D;54543;50.712;6.070;2024-03-22T08:48:01;13.55;118.99
67748;HTU21D;54543;50.712;6.070;2024-03-22T08:50:27;13.62;118.99
67748;HTU21D;54543;50.712;6.070;2024-03-22T08:52:53;13.63;118.99
67748;HTU21D;54543;50.712;6.070;2024-03-22T08:55:18;13.61;118.99
67748;HTU21D;54543;50.712;6.070;2024-03-22T08:57:45;13.64;118.99
67748;HTU21D;54543;50.712;6.070;2024-03-22T09:00:11;13.67;118.99
67748;HTU21D;54543;50.712;6.070;2024-03-22T09:02:38;13.74;118.99
67748;HTU21D;54543;50.712;6.070;2024-03-22T09:05:05;13.83;118.99
67748;HTU21D;54543;50.712;6.070;2024-03-22T09:07:31;13.89;117.36
67748;HTU21D;54543;50.712;6.070;2024-03-22T09:09:57;13.94;118.99
67748;HTU21D;54543;50.712;6.070;2024-03-22T09:12:22;14.03;118.99
67748;HTU21D;54543;50.712;6.070;2024-03-22T09:14:49;14.09;117.48
67748;HTU21D;54543;50.712;6.070;2024-03-22T09:17:15;14.18;117.48
67748;HTU21D;54543;50.712;6.070;2024-03-22T09:19:41;14.19;114.33
67748;HTU21D;54543;50.712;6.070;2024-03-22T09:22:07;14.25;117.02
67748;HTU21D;54543;50.712;6.070;2024-03-22T09:24:32;14.26;116.89
67748;HTU21D;54543;50.712;6.070;2024-03-22T09:26:59;14.33;115.61
67748;HTU21D;54543;50.712;6.070;2024-03-22T09:29:24;14.36;112.13
67748;HTU21D;54543;50.712;6.070;2024-03-22T09:31:50;14.40;116.26
67748;HTU21D;54543;50.712;6.070;2024-03-22T09:34:18;14.44;114.36
67748;HTU21D;54543;50.712;6.070;2024-03-22T09:36:45;14.47;113.62
67748;HTU21D;54543;50.712;6.070;2024-03-22T09:39:12;14.50;111.87
67748;HTU21D;54543;50.712;6.070;2024-03-22T09:41:42;14.48;112.66
67748;HTU21D;54543;50.712;6.070;2024-03-22T09:44:13;14.51;114.45
67748;HTU21D;54543;50.712;6.070;2024-03-22T09:46:40;14.60;113.24
67748;HTU21D;54543;50.712;6.070;2024-03-22T09:49:10;14.64;107.75
67748;HTU21D;54543;50.712;6.070;2024-03-22T09:51:42;14.64;109.49
67748;HTU21D;54543;50.712;6.070;2024-03-22T09:54:09;14.69;111.94
67748;HTU21D;54543;50.712;6.070;2024-03-22T09:56:38;14.77;109.59
67748;HTU21D;54543;50.712;6.070;2024-03-22T09:59:05;14.81;107.79
67748;HTU21D;54543;50.712;6.070;2024-03-22T10:01:33;14.80;107.76
67748;HTU21D;54543;50.712;6.070;2024-03-22T10:04:00;14.81;104.34
67748;HTU21D;54543;50.712;6.070;2024-03-22T10:06:29;14.82;102.86
67748;HTU21D;54543;50.712;6.070;2024-03-22T10:09:01;14.82;104.81
67748;HTU21D;54543;50.712;6.070;2024-03-22T10:11:29;14.82;106.55
67748;HTU21D;54543;50.712;6.070;2024-03-22T10:13:59;14.83;106.53
67748;HTU21D;54543;50.712;6.070;2024-03-22T10:16:25;14.89;105.60
67748;HTU21D;54543;50.712;6.070;2024-03-22T10:18:51;14.88;101.71
67748;HTU21D;54543;50.712;6.070;2024-03-22T10:21:19;14.89;103.18
67748;HTU21D;54543;50.712;6.070;2024-03-22T10:23:45;14.95;106.48
67748;HTU21D;54543;50.712;6.070;2024-03-22T10:26:15;14.97;105.59
67748;HTU21D;54543;50.712;6.070;2024-03-22T10:28:47;14.99;103.71
67748;HTU21D;54543;50.712;6.070;2024-03-22T10:31:14;15.06;103.07
67748;HTU21D;54543;50.712;6.070;2024-03-22T10:33:44;15.07;103.15
67748;HTU21D;54543;50.712;6.070;2024-03-22T10:36:10;15.13;104.74
67748;HTU21D;54543;50.712;6.070;2024-03-22T10:38:38;15.12;101.85
67748;HTU21D;54543;50.712;6.070;2024-03-22T10:41:04;15.14;103.69
67748;HTU21D;54543;50.712;6.070;2024-03-22T10:43:31;15.17;104.15
67748;HTU21D;54543;50.712;6.070;2024-03-22T10:46:02;15.24;101.22
67748;HTU21D;54543;50.712;6.070;2024-03-22T10:48:33;15.30;101.32
67748;HTU21D;54543;50.712;6.070;2024-03-22T10:51:01;15.38;102.18
67748;HTU21D;54543;50.712;6.070;2024-03-22T10:53:28;15.44;101.32
67748;HTU21D;54543;50.712;6.070;2024-03-22T10:55:57;15.51;102.22
67748;HTU21D;54543;50.712;6.070;2024-03-22T10:58:27;15.59;99.03
67748;HTU21D;54543;50.712;6.070;2024-03-22T11:00:54;15.66;95.32
67748;HTU21D;54543;50.712;6.070;2024-03-22T11:03:25;15.62;96.32
67748;HTU21D;54543;50.712;6.070;2024-03-22T11:05:56;15.66;98.43
67748;HTU21D;54543;50.712;6.070;2024-03-22T11:08:29;15.73;97.07
67748;HTU21D;54543;50.712;6.070;2024-03-22T11:11:09;15.80;94.13
67748;HTU21D;54543;50.712;6.070;2024-03-22T11:13:41;15.83;93.42
67748;HTU21D;54543;50.712;6.070;2024-03-22T11:16:09;15.82;95.84
67748;HTU21D;54543;50.712;6.070;2024-03-22T11:18:35;15.78;96.47
67748;HTU21D;54543;50.712;6.070;2024-03-22T11:21:01;15.83;95.35
67748;HTU21D;54543;50.712;6.070;2024-03-22T11:23:28;15.77;96.03
67748;HTU21D;54543;50.712;6.070;2024-03-22T11:25:54;15.71;95.56
67748;HTU21D;54543;50.712;6.070;2024-03-22T11:28:19;15.66;96.10
67748;HTU21D;54543;50.712;6.070;2024-03-22T11:30:45;15.56;96.13
67748;HTU21D;54543;50.712;6.070;2024-03-22T11:33:11;15.52;97.21
67748;HTU21D;54543;50.712;6.070;2024-03-22T11:35:36;15.49;96.39
67748;HTU21D;54543;50.712;6.070;2024-03-22T11:38:02;15.42;97.32
67748;HTU21D;54543;50.712;6.070;2024-03-22T11:40:30;15.36;96.68
67748;HTU21D;54543;50.712;6.070;2024-03-22T11:42:57;15.30;96.25
67748;HTU21D;54543;50.712;6.070;2024-03-22T11:45:23;15.27;96.36
67748;HTU21D;54543;50.712;6.070;2024-03-22T11:47:50;15.26;91.93
67748;HTU21D;54543;50.712;6.070;2024-03-22T11:50:17;15.24;96.24
67748;HTU21D;54543;50.712;6.070;2024-03-22T11:52:43;15.27;89.03
67748;HTU21D;54543;50.712;6.070;2024-03-22T11:55:12;15.26;93.47
67748;HTU21D;54543;50.712;6.070;2024-03-22T11:57:38;15.30;94.43
67748;HTU21D;54543;50.712;6.070;2024-03-22T12:00:04;15.30;93.31
67748;HTU21D;54543;50.712;6.070;2024-03-22T12:02:35;15.32;93.73
67748;HTU21D;54543;50.712;6.070;2024-03-22T12:05:04;15.34;93.70
67748;HTU21D;54543;50.712;6.070;2024-03-22T12:07:30;15.40;91.73
67748;HTU21D;54543;50.712;6.070;2024-03-22T12:09:55;15.47;92.75
67748;HTU21D;54543;50.712;6.070;2024-03-22T12:12:22;15.51;91.40
67748;HTU21D;54543;50.712;6.070;2024-03-22T12:14:48;15.56;88.64
67748;HTU21D;54543;50.712;6.070;2024-03-22T12:17:18;15.62;90.45
67748;HTU21D;54543;50.712;6.070;2024-03-22T12:19:44;15.73;88.31
67748;HTU21D;54543;50.712;6.070;2024-03-22T12:22:10;15.83;87.65
67748;HTU21D;54543;50.712;6.070;2024-03-22T12:24:36;15.95;84.61
67748;HTU21D;54543;50.712;6.070;2024-03-22T12:27:01;16.06;85.90
67748;HTU21D;54543;50.712;6.070;2024-03-22T12:29:27;16.24;84.24
67748;HTU21D;54543;50.712;6.070;2024-03-22T12:31:54;16.40;81.60
67748;HTU21D;54543;50.712;6.070;2024-03-22T12:34:20;16.50;80.42
67748;HTU21D;54543;50.712;6.070;2024-03-22T12:36:46;16.63;83.25
67748;HTU21D;54543;50.712;6.070;2024-03-22T12:39:11;16.79;77.38
67748;HTU21D;54543;50.712;6.070;2024-03-22T12:41:37;16.79;74.22
67748;HTU21D;54543;50.712;6.070;2024-03-22T12:44:03;16.70;75.31
67748;HTU21D;54543;50.712;6.070;2024-03-22T12:46:29;16.63;76.30
67748;HTU21D;54543;50.712;6.070;2024-03-22T12:48:55;16.62;77.57
67748;HTU21D;54543;50.712;6.070;2024-03-22T12:51:20;16.67;75.30
67748;HTU21D;54543;50.712;6.070;2024-03-22T12:53:46;16.72;72.61
67748;HTU21D;54543;50.712;6.070;2024-03-22T12:56:12;16.65;74.46
67748;HTU21D;54543;50.712;6.070;2024-03-22T12:58:37;16.66;76.08
67748;HTU21D;54543;50.712;6.070;2024-03-22T13:01:05;16.70;75.73
67748;HTU21D;54543;50.712;6.070;2024-03-22T13:03:32;16.75;76.53
67748;HTU21D;54543;50.712;6.070;2024-03-22T13:05:58;16.82;73.32
67748;HTU21D;54543;50.712;6.070;2024-03-22T13:08:24;16.98;72.13
67748;HTU21D;54543;50.712;6.070;2024-03-22T13:10:49;17.08;69.30
67748;HTU21D;54543;50.712;6.070;2024-03-22T13:13:15;17.13;69.37
67748;HTU21D;54543;50.712;6.070;2024-03-22T13:15:42;17.19;65.59
67748;HTU21D;54543;50.712;6.070;2024-03-22T13:18:08;17.24;66.82
67748;HTU21D;54543;50.712;6.070;2024-03-22T13:20:36;17.34;65.55
67748;HTU21D;54543;50.712;6.070;2024-03-22T13:23:02;17.40;63.98
67748;HTU21D;54543;50.712;6.070;2024-03-22T13:25:28;17.37;61.56
67748;HTU21D;54543;50.712;6.070;2024-03-22T13:27:54;17.31;61.38
67748;HTU21D;54543;50.712;6.070;2024-03-22T13:30:19;17.31;58.23
67748;HTU21D;54543;50.712;6.070;2024-03-22T13:32:45;17.29;59.55
67748;HTU21D;54543;50.712;6.070;2024-03-22T13:35:11;17.29;62.96
67748;HTU21D;54543;50.712;6.070;2024-03-22T13:37:36;17.40;64.53
67748;HTU21D;54543;50.712;6.070;2024-03-22T13:40:02;17.48;61.67
67748;HTU21D;54543;50.712;6.070;2024-03-22T13:42:28;17.48;62.20
67748;HTU21D;54543;50.712;6.070;2024-03-22T13:44:55;17.40;61.96
67748;HTU21D;54543;50.712;6.070;2024-03-22T13:47:20;17.24;63.58
67748;HTU21D;54543;50.712;6.070;2024-03-22T13:49:46;17.09;64.47
67748;HTU21D;54543;50.712;6.070;2024-03-22T13:52:12;16.91;62.95
67748;HTU21D;54543;50.712;6.070;2024-03-22T13:54:37;16.92;65.09
67748;HTU21D;54543;50.712;6.070;2024-03-22T13:57:03;16.91;66.22
67748;HTU21D;54543;50.712;6.070;2024-03-22T13:59:29;17.03;66.59
67748;HTU21D;54543;50.712;6.070;2024-03-22T14:01:55;17.23;65.50
67748;HTU21D;54543;50.712;6.070;2024-03-22T14:04:24;17.38;64.21
67748;HTU21D;54543;50.712;6.070;2024-03-22T14:06:51;17.43;63.52
67748;HTU21D;54543;50.712;6.070;2024-03-22T14:09:17;17.38;63.92
67748;HTU21D;54543;50.712;6.070;2024-03-22T14:11:43;17.39;65.46
67748;HTU21D;54543;50.712;6.070;2024-03-22T14:14:11;17.52;63.14
67748;HTU21D;54543;50.712;6.070;2024-03-22T14:16:40;17.52;62.64
67748;HTU21D;54543;50.712;6.070;2024-03-22T14:19:07;17.58;63.36
67748;HTU21D;54543;50.712;6.070;2024-03-22T14:21:32;17.72;65.27
67748;HTU21D;54543;50.712;6.070;2024-03-22T14:23:58;17.84;65.61
67748;HTU21D;54543;50.712;6.070;2024-03-22T14:26:23;17.90;67.18
67748;HTU21D;54543;50.712;6.070;2024-03-22T14:28:49;17.82;68.07
67748;HTU21D;54543;50.712;6.070;2024-03-22T14:31:16;17.72;69.38
67748;HTU21D;54543;50.712;6.070;2024-03-22T14:33:41;17.75;69.66
67748;HTU21D;54543;50.712;6.070;2024-03-22T14:36:08;17.72;71.05
67748;HTU21D;54543;50.712;6.070;2024-03-22T14:38:35;17.74;71.14
67748;HTU21D;54543;50.712;6.070;2024-03-22T14:41:00;17.70;66.98
67748;HTU21D;54543;50.712;6.070;2024-03-22T14:43:27;17.65;70.84
67748;HTU21D;54543;50.712;6.070;2024-03-22T14:45:55;17.67;72.37
67748;HTU21D;54543;50.712;6.070;2024-03-22T14:48:22;17.65;71.17
67748;HTU21D;54543;50.712;6.070;2024-03-22T14:50:48;17.44;73.32
67748;HTU21D;54543;50.712;6.070;2024-03-22T14:53:14;17.37;75.32
67748;HTU21D;54543;50.712;6.070;2024-03-22T14:56:03;17.43;73.57
67748;HTU21D;54543;50.712;6.070;2024-03-22T14:58:30;17.38;73.25
67748;HTU21D;54543;50.712;6.070;2024-03-22T15:00:57;17.25;76.22